Time;durP1;ratioP1;P1;durP2;ratioP2;P2;SDS_P1;SDS_P2;PMS_P1;PMS_P2;Temp;Humidity;BMP_temperature;BMP_pressure;BME280_temperature;BME280_humidity;BME280_pressure;Samples;Min_cycle;Max_cycle;Signal;HPM_P1;HPM_P2
2021/11/18 18:31:12;;;;;;;;;;;;;;;;;;5112192;27;1615;-59
2021/11/18 18:33:37;;;;;;;;;;;;;;;;;;5112600;28;882;-66
2021/11/18 18:36:02;;;;;;;;;;;;;;;;;;5112263;28;843;-59
2021/11/18 18:38:27;;;;;;;;;;;;;;;;;;5111901;28;830;-66
2021/11/18 19:05:51;;;;;;;;;0.00;0.00;;;;;;;;5123233;27;1381937;-57
2021/11/18 19:08:19;;;;;;;;;0.33;0.33;;;;;;;;5157319;27;21822;-58
2021/11/18 19:36:44;;;;;;;;;18.00;18.00;;;;;;;;5192896;27;77829;-86
2021/11/18 19:39:10;;;;;;;;;18.25;18.25;;;;;;;;5168891;27;22933;-77
2021/11/18 19:41:45;;;;;;;;;21.50;20.00;;;;;;;;5158188;27;10049;-87
2021/11/18 19:44:11;;;;;;;;;22.50;21.25;;;;;;;;5106148;27;16914;-78
2021/11/18 19:46:38;;;;;;;;;25.50;23.75;;;;;;;;5127776;27;11549;-82
2021/11/18 19:49:06;;;;;;;;;25.00;24.00;;;;;;;;5103269;27;12677;-82
2021/11/18 19:51:36;;;;;;;;;23.25;22.25;;;;;;;;5107792;27;12927;-79
2021/11/18 19:54:02;;;;;;;;;24.25;21.00;;;;;;;;5104582;27;13335;-83
2021/11/18 19:56:27;;;;;;;;;22.00;21.75;;;;;;;;5131045;27;12340;-81
2021/11/18 19:58:53;;;;;;;;;22.25;22.00;;;;;;;;5123976;27;11973;-77
2021/11/18 20:01:20;;;;;;;;;19.75;19.00;;;;;;;;5068140;27;12966;-78
2021/11/18 20:03:47;;;;;;;;;22.50;18.50;;;;;;;;5161492;27;11666;-77
2021/11/18 20:06:14;;;;;;;;;30.00;22.75;;;;;;;;5148676;27;14032;-78
2021/11/18 20:08:39;;;;;;;;;21.25;18.75;;;;;;;;5165318;27;13320;-80
2021/11/18 20:11:09;;;;;;;;;26.75;20.75;;;;;;;;5163117;27;12374;-83
2021/11/18 20:13:35;;;;;;;;;21.00;19.00;;;;;;;;5157956;27;10628;-80
2021/11/18 20:16:00;;;;;;;;;23.00;19.25;;;;;;;;5158894;27;12482;-86
2021/11/18 20:18:26;;;;;;;;;16.75;16.75;;;;;;;;5154655;27;13244;-84
2021/11/18 20:20:54;;;;;;;;;21.00;19.50;;;;;;;;5138686;27;14343;-79
2021/11/18 20:23:19;;;;;;;;;22.50;20.00;;;;;;;;5157712;27;13313;-81
2021/11/18 20:25:46;;;;;;;;;22.50;21.00;;;;;;;;5157705;27;12192;-79
2021/11/18 20:28:12;;;;;;;;;26.50;23.50;;;;;;;;5157283;27;8848;-86
2021/11/18 20:30:57;;;;;;;;;21.50;20.00;;;;;;;;5139145;27;13806;-81
2021/11/18 20:33:24;;;;;;;;;23.75;21.00;;;;;;;;5158346;27;11459;-83
2021/11/18 20:35:51;;;;;;;;;20.00;18.75;;;;;;;;5156892;27;11523;-80
2021/11/18 20:38:19;;;;;;;;;28.00;21.50;;;;;;;;5157478;27;12561;-86
2021/11/18 20:40:50;;;;;;;;;20.75;18.75;;;;;;;;5158327;27;12271;-86
2021/11/18 20:43:21;;;;;;;;;27.00;25.00;;;;;;;;5158216;27;13406;-79
2021/11/18 20:45:47;;;;;;;;;28.75;26.00;;;;;;;;5173547;27;12289;-83
2021/11/18 20:48:13;;;;;;;;;24.00;23.00;;;;;;;;5158955;27;11429;-84
2021/11/18 20:50:47;;;;;;;;;23.25;23.00;;;;;;;;5163313;27;11409;-83
2021/11/18 20:53:13;;;;;;;;;24.25;20.25;;;;;;;;5163378;27;11372;-85
2021/11/18 20:55:39;;;;;;;;;27.25;26.25;;;;;;;;5145635;27;13532;-77
2021/11/18 20:58:07;;;;;;;;;27.75;26.00;;;;;;;;5162599;27;8829;-81
2021/11/18 21:00:41;;;;;;;;;29.00;25.00;;;;;;;;5160143;27;11408;-82
2021/11/18 21:03:07;;;;;;;;;29.50;23.00;;;;;;;;5160199;27;11400;-81
2021/11/18 21:05:32;;;;;;;;;30.75;24.75;;;;;;;;5163253;27;11517;-87
2021/11/18 21:08:04;;;;;;;;;29.50;24.00;;;;;;;;5162682;27;14695;-86
2021/11/18 21:10:30;;;;;;;;;25.50;21.50;;;;;;;;5163093;27;13321;-79
2021/11/18 21:12:55;;;;;;;;;30.25;26.50;;;;;;;;5162151;27;12059;-80
2021/11/18 21:15:21;;;;;;;;;27.25;22.00;;;;;;;;5162988;27;12447;-80
2021/11/18 21:17:47;;;;;;;;;28.25;24.00;;;;;;;;5162696;27;14424;-84
2021/11/18 21:20:14;;;;;;;;;32.25;28.00;;;;;;;;5142992;27;11459;-79
2021/11/18 21:22:41;;;;;;;;;30.25;25.50;;;;;;;;5162997;27;11376;-83
2021/11/18 21:25:08;;;;;;;;;37.00;28.00;;;;;;;;5039164;27;11496;-86
2021/11/18 21:27:34;;;;;;;;;39.75;34.75;;;;;;;;5153997;27;13706;-86
2021/11/18 21:30:03;;;;;;;;;44.25;35.75;;;;;;;;5096363;27;14263;-85
2021/11/18 21:32:29;;;;;;;;;40.00;32.00;;;;;;;;5141774;27;11907;-76
2021/11/18 21:34:56;;;;;;;;;37.50;32.00;;;;;;;;5143664;27;11477;-78
2021/11/18 21:37:25;;;;;;;;;39.25;33.00;;;;;;;;5151590;27;10282;-86
2021/11/18 21:39:54;;;;;;;;;33.25;27.75;;;;;;;;5123544;27;12308;-85
2021/11/18 21:42:22;;;;;;;;;27.00;25.00;;;;;;;;5123373;27;14610;-85
2021/11/18 21:44:49;;;;;;;;;31.75;28.50;;;;;;;;5142503;27;13344;-86
2021/11/18 21:47:23;;;;;;;;;30.00;25.75;;;;;;;;5122662;27;13676;-86
2021/11/18 21:49:57;;;;;;;;;31.25;28.00;;;;;;;;5141977;27;12242;-85
2021/11/18 21:52:23;;;;;;;;;29.00;28.50;;;;;;;;5142409;27;11601;-84
2021/11/18 21:54:57;;;;;;;;;31.00;27.50;;;;;;;;5141228;27;13349;-82
2021/11/18 21:57:25;;;;;;;;;35.00;31.25;;;;;;;;5123685;27;12912;-85
2021/11/18 21:59:51;;;;;;;;;29.00;27.25;;;;;;;;5140096;27;13356;-84
2021/11/18 22:02:16;;;;;;;;;29.50;28.00;;;;;;;;5141982;27;11319;-85
2021/11/18 22:04:42;;;;;;;;;35.25;30.00;;;;;;;;5123452;27;10699;-83
2021/11/18 22:07:15;;;;;;;;;35.25;30.50;;;;;;;;5141522;27;12743;-83
2021/11/18 22:09:41;;;;;;;;;35.75;31.50;;;;;;;;5142458;27;8767;-80
2021/11/18 22:12:07;;;;;;;;;35.00;33.50;;;;;;;;5142221;27;11393;-84
2021/11/18 22:14:32;;;;;;;;;39.75;28.50;;;;;;;;5142736;27;11485;-85
2021/11/18 22:16:59;;;;;;;;;30.00;28.00;;;;;;;;5123061;27;13353;-85
2021/11/18 22:19:27;;;;;;;;;34.75;29.25;;;;;;;;5122799;27;13973;-85
2021/11/18 22:21:53;;;;;;;;;28.25;26.50;;;;;;;;5141700;27;11672;-86
2021/11/18 22:24:19;;;;;;;;;34.00;25.75;;;;;;;;5141474;27;13227;-81
2021/11/18 22:26:46;;;;;;;;;29.00;26.50;;;;;;;;5140912;27;13328;-78
2021/11/18 22:29:14;;;;;;;;;26.75;24.25;;;;;;;;5141970;27;13337;-83
2021/11/18 22:31:39;;;;;;;;;30.25;27.00;;;;;;;;5148023;27;12116;-81
2021/11/18 22:34:06;;;;;;;;;23.75;22.50;;;;;;;;5162014;27;13776;-83
2021/11/18 22:36:33;;;;;;;;;30.50;28.75;;;;;;;;5156159;27;13338;-84
2021/11/18 22:38:59;;;;;;;;;33.25;28.75;;;;;;;;5124404;27;15311;-84
2021/11/18 22:41:44;;;;;;;;;35.75;30.00;;;;;;;;5142603;27;11411;-85
2021/11/18 22:44:10;;;;;;;;;29.25;27.50;;;;;;;;5142678;27;12841;-85
2021/11/18 22:46:36;;;;;;;;;31.00;25.75;;;;;;;;5140180;27;13477;-81
2021/11/18 22:49:02;;;;;;;;;25.25;24.75;;;;;;;;5141506;27;14343;-81
2021/11/18 22:51:29;;;;;;;;;31.75;29.00;;;;;;;;5151440;27;13561;-83
2021/11/18 22:53:54;;;;;;;;;30.25;26.25;;;;;;;;5145169;27;13507;-84
2021/11/18 22:56:20;;;;;;;;;32.25;26.50;;;;;;;;5140978;27;11568;-85
2021/11/18 22:58:49;;;;;;;;;28.00;26.00;;;;;;;;5142878;27;11984;-84
2021/11/18 23:01:25;;;;;;;;;33.75;25.25;;;;;;;;5139193;27;13588;-84
2021/11/18 23:03:51;;;;;;;;;28.50;24.50;;;;;;;;5139540;27;13833;-83
2021/11/18 23:06:18;;;;;;;;;38.25;27.00;;;;;;;;5140132;27;13510;-82
2021/11/18 23:08:44;;;;;;;;;31.25;28.25;;;;;;;;5140398;27;13610;-82
2021/11/18 23:11:10;;;;;;;;;33.75;27.25;;;;;;;;5139664;27;12778;-84
2021/11/18 23:13:36;;;;;;;;;35.75;29.00;;;;;;;;5121918;27;11428;-83
2021/11/18 23:16:04;;;;;;;;;30.00;30.00;;;;;;;;5140949;27;11393;-83
2021/11/18 23:18:29;;;;;;;;;30.75;24.00;;;;;;;;5122660;27;13670;-83
2021/11/18 23:20:56;;;;;;;;;32.50;26.25;;;;;;;;5141234;27;12333;-84
2021/11/18 23:23:22;;;;;;;;;28.00;22.50;;;;;;;;5121857;27;13267;-84
2021/11/18 23:25:48;;;;;;;;;33.00;28.25;;;;;;;;5141938;27;13557;-85
2021/11/18 23:28:27;;;;;;;;;33.00;29.00;;;;;;;;5122445;27;15131;-84
2021/11/18 23:30:53;;;;;;;;;29.50;23.50;;;;;;;;5122718;27;9242;-85
2021/11/18 23:33:18;;;;;;;;;29.25;25.75;;;;;;;;5141998;27;13224;-84
2021/11/18 23:35:46;;;;;;;;;30.50;28.50;;;;;;;;5140382;27;11578;-84
2021/11/18 23:38:11;;;;;;;;;25.00;21.25;;;;;;;;5140142;27;13893;-82
2021/11/18 23:40:37;;;;;;;;;27.50;24.50;;;;;;;;5141078;27;13227;-83
2021/11/18 23:43:03;;;;;;;;;24.75;22.00;;;;;;;;5141153;27;12632;-84
2021/11/18 23:45:29;;;;;;;;;24.00;21.75;;;;;;;;5140937;27;11643;-83
2021/11/18 23:47:55;;;;;;;;;25.25;23.25;;;;;;;;5121964;27;12245;-82
2021/11/18 23:50:24;;;;;;;;;29.75;26.00;;;;;;;;5121658;27;12610;-83
2021/11/18 23:52:50;;;;;;;;;26.25;24.50;;;;;;;;5140646;27;11452;-83
2021/11/18 23:55:18;;;;;;;;;30.50;23.25;;;;;;;;5140444;27;11600;-83
2021/11/18 23:57:43;;;;;;;;;23.75;22.25;;;;;;;;5140697;27;13882;-83
